1. Widząc opisy do tego hasztaga mam wrażenie, że to inny serial,niż ten którego moja babcia oglądała w młodości

  2. SKCG 240220Z 00000KT 9999 TS SCT015 FEW020CB 27/26 A2982 RMK CB/W

  3. W odpowiedzi do to i jeszcze

    ps. Chodzi o wartości bezwzględne w odniesieniu do punktu zerowego funkcji :)

  4. W odpowiedzi do

    Np naziol Miedlar- w orbicie PIS. A ksiądz Kramer czym podpadł?

  5. W odpowiedzi do

    Moja ikonka mówi teraz w s z y s t k o

  6. W odpowiedzi do to i jeszcze

    Mnie sie podoba, w końcu korona zamknięta, z krzyżem i nie ma gwiazd